»·PEaware :: N973DM L08-KSAN

N973DM :: L08-KSAN

FLIGHT INFORMATION

Flight Status: Arrived
Operator: Privately registered:
United States
More flights under this callsign
Pilot: Anonymous 1328 (1328)
Aircraft: CIRRUS SR-20
(SR20)
More flights by this aircraft type
Origin: L08 Borrego Valley
United States
Destination: KSAN San Diego Intl-Lindbergh
United States
More flights between these airports :: More routes between these airports
Route: KUMBA1 KUMBA MZB
File this flight plan on PilotEdge
Remarks: NO STAR INTO KSAN PLS.
Altitude:
(Current/Filed)
9,000ft
Speed:
(Current/Filed)
140kts
Departed: 16-Nov-13 07:44 PM
Arrived: 16-Nov-13 08:33 PM
Distance/Time
Traveled:
54nm/0:49
Distance/Time
To Go:
Arrived

Flight Plot

Page will automatically refresh every two minutes.


Map Options




Map Legend


Flown Route
Filed Route
Departure Airport
Arrival Airport
Navaid (VOR, NDB)
Fix

Horizontal Profiles

Position Reports

Time Latitude Longitude Heading Altitude Ground
Speed
16-Nov-13 19:14 33.258340 -116.328221 268 522ft 0kts
16-Nov-13 19:15 33.258340 -116.328221 268 522ft 0kts
16-Nov-13 19:16 33.258340 -116.328221 268 522ft 0kts
16-Nov-13 19:17 33.258340 -116.328221 268 522ft 0kts
16-Nov-13 19:18 33.258340 -116.328221 268 522ft 0kts
16-Nov-13 19:19 33.258340 -116.328221 268 522ft 0kts
16-Nov-13 19:20 33.258672 -116.320982 185 522ft 0kts
16-Nov-13 19:21 33.258672 -116.320982 185 522ft 0kts
16-Nov-13 19:22 33.258672 -116.320982 185 522ft 0kts
16-Nov-13 19:29 33.258326 -116.328598 260 522ft 0kts
16-Nov-13 19:30 33.258326 -116.328598 260 522ft 0kts
16-Nov-13 19:31 33.258326 -116.328598 260 522ft 0kts
16-Nov-13 19:32 33.258326 -116.328598 260 522ft 0kts
16-Nov-13 19:33 33.258326 -116.328598 260 522ft 0kts
16-Nov-13 19:34 33.258326 -116.328598 260 522ft 0kts
16-Nov-13 19:35 33.258326 -116.328598 260 522ft 0kts
16-Nov-13 19:36 33.258326 -116.328598 260 522ft 0kts
16-Nov-13 19:37 33.258326 -116.328598 260 522ft 0kts
16-Nov-13 19:38 33.258326 -116.328598 260 522ft 0kts
16-Nov-13 19:39 33.258326 -116.328598 260 522ft 0kts
16-Nov-13 19:40 33.258418 -116.329036 335 522ft 1kts
16-Nov-13 19:41 33.258487 -116.329072 336 522ft 0kts
16-Nov-13 19:42 33.258908 -116.328910 86 522ft 1kts
16-Nov-13 19:43 33.258872 -116.309639 81 823ft 94kts
16-Nov-13 19:44 33.259182 -116.278585 84 1745ft 102kts
16-Nov-13 19:45 33.242461 -116.255016 155 2683ft 109kts
16-Nov-13 19:46 33.212114 -116.236513 149 3352ft 124kts
16-Nov-13 19:47 33.182689 -116.215079 147 4153ft 125kts
16-Nov-13 19:48 33.152921 -116.192824 146 4834ft 127kts
16-Nov-13 19:49 33.122817 -116.170284 146 5481ft 129kts
16-Nov-13 19:50 33.091963 -116.147097 147 6088ft 132kts
16-Nov-13 19:51 33.060627 -116.123622 151 6677ft 133kts
16-Nov-13 19:52 33.029452 -116.100328 154 7264ft 131kts
16-Nov-13 19:53 32.998868 -116.077504 156 7828ft 127kts
16-Nov-13 19:54 32.969164 -116.055359 157 8360ft 124kts
16-Nov-13 19:55 32.938615 -116.047330 190 8819ft 112kts
16-Nov-13 19:56 32.906068 -116.048602 190 9026ft 127kts
16-Nov-13 19:57 32.869273 -116.049937 189 9023ft 136kts
16-Nov-13 19:58 32.830295 -116.051365 189 9022ft 142kts
16-Nov-13 19:59 32.793681 -116.052650 190 9023ft 122kts
16-Nov-13 20:00 32.764168 -116.064443 261 9022ft 119kts
16-Nov-13 20:01 32.763419 -116.104849 267 9022ft 123kts
16-Nov-13 20:02 32.764112 -116.145830 268 9021ft 124kts
16-Nov-13 20:03 32.764964 -116.186961 268 9031ft 124kts
16-Nov-13 20:04 32.765810 -116.228263 268 9051ft 125kts
16-Nov-13 20:05 32.766649 -116.269985 268 9061ft 126kts
16-Nov-13 20:06 32.767487 -116.312495 268 9092ft 130kts
16-Nov-13 20:07 32.768330 -116.355945 268 9107ft 133kts
16-Nov-13 20:08 32.769182 -116.400650 268 9135ft 137kts
16-Nov-13 20:09 32.770058 -116.446537 268 9143ft 139kts
16-Nov-13 20:10 32.770920 -116.493234 268 9149ft 141kts
16-Nov-13 20:11 32.771759 -116.539522 268 9148ft 139kts
16-Nov-13 20:12 32.772601 -116.587325 268 8959ft 146kts
16-Nov-13 20:13 32.773444 -116.635825 268 8833ft 146kts
16-Nov-13 20:14 32.768407 -116.683287 230 8215ft 144kts
16-Nov-13 20:15 32.747410 -116.713459 229 7614ft 140kts
16-Nov-13 20:16 32.722088 -116.748531 229 6920ft 138kts
16-Nov-13 20:17 32.697630 -116.781079 229 6277ft 113kts
16-Nov-13 20:18 32.680941 -116.802110 229 5448ft 79kts
16-Nov-13 20:19 32.667234 -116.819622 240 4711ft 78kts
16-Nov-13 20:20 32.659091 -116.845364 257 5167ft 88kts
16-Nov-13 20:21 32.659704 -116.882749 289 4972ft 137kts
16-Nov-13 20:22 32.668709 -116.922531 285 4246ft 123kts
16-Nov-13 20:23 32.675157 -116.956621 280 3739ft 101kts
16-Nov-13 20:24 32.682640 -116.985272 287 3267ft 91kts
16-Nov-13 20:25 32.689443 -117.009694 290 2839ft 92kts
16-Nov-13 20:26 32.696304 -117.034928 284 2733ft 91kts
16-Nov-13 20:27 32.703007 -117.061223 285 2429ft 101kts
16-Nov-13 20:28 32.709325 -117.090356 283 2045ft 88kts
16-Nov-13 20:29 32.715061 -117.115520 290 1663ft 82kts
16-Nov-13 20:30 32.722253 -117.142700 283 1077ft 94kts
16-Nov-13 20:31 32.729090 -117.171283 283 249ft 82kts
16-Nov-13 20:32 32.732951 -117.187338 300 19ft 9kts
16-Nov-13 20:33 32.732306 -117.188345 127 19ft 0kts

Navigation Log

Ident Type
Flight plan parsing failed, navigation log unavailable